Terminal Aerodrome Forecast
Issued by NWS

Home | Current Version | Previous Version | Graphics & Text | Print | Product List | Glossary On
Versions: 1 2 3 4 5 6 7 8 9 10 11 12 13 14 15 16
000
FTUS45 KGGW 281100 RRA
TAFSDY
TAF
KSDY 281145Z 2812/2912 04010KT P6SM VCSH SCT015 OVC060
     FM290100 07010KT P6SM -SHRA OVC025
      AMD LTD TO CLD VIS AND WIND=

USA.gov is the U.S. government's official web portal to all federal, state and local government web resources and services.